Flight Track Log - Related Links

Times and Time Zones

All times are in EST time to prevent confusion due to time zone crossing. See the SWA534 flight status page for this flight to view local times or setup timezone preferences in your user account.

Time Position Orientation Groundspeed Altitude Reporting Facility
EST Latitude Longitude Course Direction KTS MPH feet Rate Location/Type
Sun 08:10:32 PM 37.6500 -122.1333 130° Southeast 226 260 4,100  Level Northern Cal TRACON
Sun 08:12:15 PM 37.6739 -122.0225 75° East 275 316 10,700 3,439 Climbing Oakland Center
Sun 08:13:16 PM 37.7636 -122.0286 357° North 311 358 13,500 2,115 Climbing Oakland Center
Sun 08:14:17 PM 37.8619 -122.0369 356° North 350 403 15,000 1,918 Climbing Oakland Center
Sun 08:15:18 PM 37.9600 -122.0469 355° North 357 411 17,400 2,803 Climbing Oakland Center
Sun 08:16:19 PM 38.0603 -122.0561 356° North 362 417 20,700 3,098 Climbing Oakland Center
Sun 08:17:20 PM 38.1628 -122.0642 356° North 370 426 23,700 2,607 Climbing Oakland Center
Sun 08:18:21 PM 38.2711 -122.0750 356° North 385 443 26,000 2,262 Climbing Oakland Center
Sun 08:19:22 PM 38.3836 -122.0847 356° North 400 460 28,300 2,016 Climbing Oakland Center
Sun 08:20:23 PM 38.4992 -122.0942 356° North 417 480 30,100 1,918 Climbing Oakland Center
Sun 08:21:24 PM 38.6414 -122.1053 357° North 429 494 32,200 1,869 Climbing Oakland Center
Sun 08:22:25 PM 38.7553 -122.1142 357° North 434 499 33,900 1,537 Climbing Oakland Center
Sun 08:23:25 PM 38.8767 -122.1258 356° North 437 503 35,300 1,388 Climbing Oakland Center
Sun 08:24:26 PM 38.9994 -122.1325 358° North 441 507 36,700 1,328 Climbing Oakland Center
Sun 08:25:27 PM 39.1222 -122.1397 357° North 440 506 38,000 1,131 Climbing Oakland Center
Sun 08:26:28 PM 39.2433 -122.1486 357° North 438 504 39,000 984 Climbing Oakland Center
Sun 08:27:29 PM 39.3656 -122.1556 357° North 440 506 40,000 492 Climbing Oakland Center
Sun 08:28:30 PM 39.5044 -122.1653 357° North 439 505 40,000  Level Oakland Center
Sun 08:29:31 PM 39.6261 -122.1725 357° North 438 504 40,000  Level Oakland Center
Sun 08:30:32 PM 39.7472 -122.1797 357° North 438 504 40,000  Level Oakland Center
Sun 08:31:33 PM 39.8683 -122.1864 358° North 438 504 40,000  Level Oakland Center
Sun 08:32:34 PM 39.9892 -122.1939 357° North 437 503 40,000  Level Oakland Center
Sun 08:33:35 PM 40.1064 -122.2019 357° North 433 498 40,000  Level Oakland Center
Sun 08:34:36 PM 40.2206 -122.2100 357° North 429 494 40,000  Level Oakland Center
Sun 08:35:37 PM 40.3619 -122.2172 358° North 429 494 40,000  Level Oakland Center
Sun 08:36:37 PM 40.4808 -122.2250 357° North 429 494 40,000  Level Oakland Center
Sun 08:37:38 PM 40.6022 -122.2325 357° North 436 502 40,000  Level Oakland Center
Sun 08:39:16 PM 40.7964 -122.2475 357° North 435 501 40,000  Level Seattle Center
Sun 08:40:16 PM 40.9181 -122.2561 357° North 437 503 40,000  Level Seattle Center
Sun 08:41:17 PM 41.0386 -122.2636 357° North 435 501 40,000  Level Seattle Center
Sun 08:42:17 PM 41.1586 -122.2717 357° North 433 498 40,000  Level Seattle Center
Sun 08:43:18 PM 41.2794 -122.2808 357° North 434 499 40,000  Level Seattle Center
Sun 08:44:19 PM 41.3994 -122.2881 357° North 433 498 40,000  Level Seattle Center
Sun 08:45:19 PM 41.5256 -122.2950 358° North 428 493 40,000  Level Seattle Center
Sun 08:46:20 PM 41.6433 -122.3028 357° North 424 488 40,000  Level Seattle Center
Sun 08:47:20 PM 41.7611 -122.3086 358° North 423 487 40,000  Level Seattle Center
Sun 08:48:21 PM 41.8786 -122.3164 357° North 422 486 40,000  Level Seattle Center
Sun 08:49:21 PM 41.9978 -122.3231 358° North 435 501 40,000  Level Seattle Center
Sun 08:50:22 PM 42.1161 -122.3308 357° North 429 494 40,000  Level Seattle Center
Sun 08:51:22 PM 42.2342 -122.3378 358° North 442 509 40,000  Level Seattle Center
Sun 08:52:23 PM 42.3536 -122.3469 357° North 427 491 40,000  Level Seattle Center
Sun 08:53:24 PM 42.4714 -122.3542 357° North 423 487 40,000  Level Seattle Center
Sun 08:54:24 PM 42.5894 -122.3622 357° North 423 487 40,000  Level Seattle Center
Sun 08:55:25 PM 42.7067 -122.3714 357° North 421 484 40,000  Level Seattle Center
Sun 08:56:25 PM 42.8219 -122.3794 357° North 430 495 40,000  Level Seattle Center
Sun 08:57:26 PM 42.9394 -122.3881 357° North 426 490 40,000  Level Seattle Center
Sun 08:58:27 PM 43.0569 -122.3967 357° North 428 493 40,000  Level Seattle Center
Sun 08:59:27 PM 43.1731 -122.4044 357° North 425 489 40,000  Level Seattle Center
Sun 09:00:28 PM 43.2911 -122.4122 357° North 428 493 40,000  Level Seattle Center
Sun 09:01:28 PM 43.4094 -122.4200 357° North 429 494 40,000  Level Seattle Center
Sun 09:02:29 PM 43.5261 -122.4294 357° North 427 491 40,000  Level Seattle Center
Sun 09:03:30 PM 43.6433 -122.4364 358° North 426 490 40,000  Level Seattle Center
Sun 09:04:30 PM 43.7831 -122.4483 356° North 421 484 40,000  Level Seattle Center
Sun 09:05:31 PM 43.9017 -122.4547 358° North 427 491 40,000  Level Seattle Center
Sun 09:06:31 PM 44.0169 -122.4636 357° North 420 483 40,000  Level Seattle Center
Sun 09:07:32 PM 44.1319 -122.4717 357° North 417 480 40,000  Level Seattle Center
Sun 09:08:32 PM 44.2450 -122.4808 357° North 412 474 40,000  Level Seattle Center
Sun 09:09:33 PM 44.3600 -122.4889 357° North 413 475 40,000  Level Seattle Center
Sun 09:10:34 PM 44.4756 -122.4978 357° North 417 480 40,000  Level Seattle Center
Sun 09:11:34 PM 44.5914 -122.5061 357° North 419 482 40,000  Level Seattle Center
Sun 09:12:35 PM 44.7067 -122.5142 357° North 417 480 40,000  Level Seattle Center
Sun 09:13:35 PM 44.8236 -122.5228 357° North 420 483 40,000  Level Seattle Center
Sun 09:14:36 PM 44.9297 -122.5311 357° North 418 481 40,000  Level Seattle Center
Sun 09:15:37 PM 45.0686 -122.5422 357° North 420 483 40,000  Level Seattle Center
Sun 09:16:37 PM 45.1853 -122.5483 358° North 422 486 40,000  Level Seattle Center
Sun 09:17:38 PM 45.3000 -122.5578 357° North 418 481 40,000  Level Seattle Center
Sun 09:18:38 PM 45.4153 -122.5658 357° North 418 481 40,000  Level Seattle Center
Sun 09:19:39 PM 45.5303 -122.5747 357° North 415 478 40,000 -793 Level Seattle Center
Sun 09:20:39 PM 45.6436 -122.5828 357° North 410 472 38,400 -2,083 Descending Seattle Center
Sun 09:21:40 PM 45.7572 -122.5928 356° North 411 473 35,800 -2,852 Descending Seattle Center
Sun 09:22:41 PM 45.8694 -122.6203 350° North 411 473 32,600 -2,826 Descending Seattle Center
Sun 09:23:41 PM 45.9806 -122.6483 350° North 409 471 30,100 -2,281 Descending Seattle Center
Sun 09:24:42 PM 46.0875 -122.6547 358° North 391 450 28,000 -2,430 Descending Seattle Center
Sun 09:25:42 PM 46.2028 -122.6408 North 372 428 25,200 -2,529 Descending Seattle Center
Sun 09:26:43 PM 46.3019 -122.6303 North 360 414 22,900 -2,164 Descending Seattle Center
Sun 09:27:44 PM 46.3983 -122.6219 North 349 402 20,800 -2,033 Descending Seattle Center
Sun 09:28:44 PM 46.4897 -122.6136 North 336 387 18,800 -2,133 Descending Seattle Center
Sun 09:29:14 PM 46.5408 -122.6111 North 335 386 17,600 -2,066 Descending Seattle Center
Sun 09:29:45 PM 46.5861 -122.6044 North 346 398 16,700 -2,082 Descending Seattle Center
Sun 09:30:03 PM 46.6183 -122.6019 North 339 390 15,900 -2,100 Descending Seattle Center
Sun 09:30:45 PM 46.6775 -122.5953 North 329 379 14,600 -2,047 Descending Seattle Center
Sun 09:31:28 PM 46.7447 -122.5919 North 325 374 13,000 -2,164 Descending Seattle Center
Sun 09:31:46 PM 46.7711 -122.5864 North 323 372 12,400 -2,000 Descending Seattle Center
Sun 09:31:58 PM 46.7919 -122.5861 North 318 366 12,000 -1,800 Descending Seattle Center
Sun 09:32:46 PM 46.8578 -122.5781 North 312 359 10,600 -1,271 Descending Seattle Center
Sun 09:33:23 PM 46.9083 -122.5717 North 300 345 10,200 -590 Descending Seattle Center
Sun 09:33:47 PM 46.9331 -122.5444 37° Northeast 287 330 10,000 -787 Descending Seattle Center
Sun 09:34:24 PM 46.9644 -122.4958 47° Northeast 270 311 9,400 -984 Descending Seattle Center
Sun 09:34:48 PM 46.9844 -122.4672 44° Northeast 265 305 9,000 -1,254 Descending Seattle Center
Sun 09:35:31 PM 47.0275 -122.4292 31° Northeast 232 267 8,000 -1,300 Descending Seattle Center
Sun 09:35:48 PM 47.0414 -122.4194 26° Northeast 236 272 7,700 -1,333 Descending Seattle Center
Sun 09:36:07 PM 47.0592 -122.4056 28° Northeast 228 262 7,200 -1,377 Descending Seattle Center
Sun 09:36:49 PM 47.1011 -122.3719 29° Northeast 229 264 6,300 -1,180 Descending Seattle Center
Sun 09:37:08 PM 47.1189 -122.3600 25° Northeast 225 259 6,000 -800 Descending Seattle Center
Sun 09:37:49 PM 47.1553 -122.3325 27° Northeast 217 250 5,500 -689 Descending Seattle Center
Sun 09:38:09 PM 47.1714 -122.3214 25° Northeast 211 243 5,300 -689 Descending Seattle Center
Sun 09:38:50 PM 47.2056 -122.3125 10° North 188 216 4,800 -800 Descending Seattle Center
Sun 09:39:09 PM 47.2206 -122.3139 356° North 175 201 4,500 -700 Descending Seattle Center
Sun 09:39:50 PM 47.2544 -122.3128 North 174 200 4,100 -824 Descending Seattle Center
Sun 09:40:51 PM 47.3031 -122.3122 360° North 175 201 3,100 -970 Descending Seattle Center
Sun 09:41:29 PM 47.3311 -122.3119 360° North 171 197 2,500 -984 Descending Seattle Center
Sun 09:41:52 PM 47.3494 -122.3119 360° North 167 192 2,100 -889 Descending Seattle Center
Sun 09:42:23 PM 47.3714 -122.3128 359° North 151 174 1,700 -700 Descending Seattle Center
Sun 09:42:52 PM 47.3872 -122.3117 North 135 155 1,400 -689 Descending Seattle Center
Sun 09:43:24 PM 47.4042 -122.3111 North 114 131 1,000 -689 Descending Seattle Center
Sun 09:43:53 PM 47.4194 -122.3119 358° North 118 136 700 -590 Descending Seattle Center
Sun 09:44:25 PM 47.4378 -122.3122 359° North 116 133 400 -400 Descending Seattle Center
Sun 09:44:53 PM 47.4500 -122.3125 359° North 121 139 300 -214 Descending Seattle Center
Sun 09:46:00 PM 47.4499 -122.3118 132° Southeast  Level Estimated

Login

Don't have an account? Register now (free) for customized features, flight alerts, and more!